sensor_id;sensor_type;location;lat;lon;timestamp;P1;durP1;ratioP1;P2;durP2;ratioP2
26702;SDS011;14316;51.074;3.704;2023-06-24T00:02:15;6.88;;;6.07;;
26702;SDS011;14316;51.074;3.704;2023-06-24T00:04:40;7.57;;;6.68;;
26702;SDS011;14316;51.074;3.704;2023-06-24T00:07:06;7.63;;;6.63;;
26702;SDS011;14316;51.074;3.704;2023-06-24T00:09:32;7.55;;;6.80;;
26702;SDS011;14316;51.074;3.704;2023-06-24T00:11:59;7.88;;;7.18;;
26702;SDS011;14316;51.074;3.704;2023-06-24T00:14:25;7.78;;;6.97;;
26702;SDS011;14316;51.074;3.704;2023-06-24T00:16:52;8.18;;;6.93;;
26702;SDS011;14316;51.074;3.704;2023-06-24T00:19:20;7.65;;;6.85;;
26702;SDS011;14316;51.074;3.704;2023-06-24T00:21:50;8.10;;;7.28;;
26702;SDS011;14316;51.074;3.704;2023-06-24T00:24:17;8.57;;;7.00;;
26702;SDS011;14316;51.074;3.704;2023-06-24T00:26:45;7.70;;;6.90;;
26702;SDS011;14316;51.074;3.704;2023-06-24T00:29:12;7.53;;;6.82;;
26702;SDS011;14316;51.074;3.704;2023-06-24T00:31:38;8.98;;;7.05;;
26702;SDS011;14316;51.074;3.704;2023-06-24T00:34:04;7.90;;;7.20;;
26702;SDS011;14316;51.074;3.704;2023-06-24T00:36:30;8.10;;;7.30;;
26702;SDS011;14316;51.074;3.704;2023-06-24T00:39:01;7.43;;;6.70;;
26702;SDS011;14316;51.074;3.704;2023-06-24T00:41:29;9.30;;;6.80;;
26702;SDS011;14316;51.074;3.704;2023-06-24T00:43:55;8.38;;;6.85;;
26702;SDS011;14316;51.074;3.704;2023-06-24T00:46:22;8.82;;;6.43;;
26702;SDS011;14316;51.074;3.704;2023-06-24T00:48:51;7.45;;;6.63;;
26702;SDS011;14316;51.074;3.704;2023-06-24T00:51:20;8.05;;;6.25;;
26702;SDS011;14316;51.074;3.704;2023-06-24T00:53:52;6.63;;;5.93;;
26702;SDS011;14316;51.074;3.704;2023-06-24T00:56:19;8.30;;;6.32;;
26702;SDS011;14316;51.074;3.704;2023-06-24T00:58:58;8.63;;;6.60;;
26702;SDS011;14316;51.074;3.704;2023-06-24T01:01:28;7.55;;;6.32;;
26702;SDS011;14316;51.074;3.704;2023-06-24T01:04:01;6.57;;;5.88;;
26702;SDS011;14316;51.074;3.704;2023-06-24T01:06:28;8.68;;;6.25;;
26702;SDS011;14316;51.074;3.704;2023-06-24T01:08:55;6.43;;;5.78;;
26702;SDS011;14316;51.074;3.704;2023-06-24T01:11:23;8.30;;;6.10;;
26702;SDS011;14316;51.074;3.704;2023-06-24T01:13:49;7.00;;;6.20;;
26702;SDS011;14316;51.074;3.704;2023-06-24T01:17:03;7.10;;;6.00;;
26702;SDS011;14316;51.074;3.704;2023-06-24T01:19:20;7.30;;;5.97;;
26702;SDS011;14316;51.074;3.704;2023-06-24T01:22:15;7.70;;;6.47;;
26702;SDS011;14316;51.074;3.704;2023-06-24T01:33:41;7.05;;;5.70;;
26702;SDS011;14316;51.074;3.704;2023-06-24T01:36:08;6.82;;;5.78;;
26702;SDS011;14316;51.074;3.704;2023-06-24T01:38:45;6.75;;;6.00;;
26702;SDS011;14316;51.074;3.704;2023-06-24T01:41:18;8.00;;;6.43;;
26702;SDS011;14316;51.074;3.704;2023-06-24T01:43:50;7.85;;;6.72;;
26702;SDS011;14316;51.074;3.704;2023-06-24T01:46:21;7.55;;;6.50;;
26702;SDS011;14316;51.074;3.704;2023-06-24T01:48:50;7.20;;;6.40;;
26702;SDS011;14316;51.074;3.704;2023-06-24T01:51:20;7.18;;;6.18;;
26702;SDS011;14316;51.074;3.704;2023-06-24T01:53:53;7.25;;;6.55;;
26702;SDS011;14316;51.074;3.704;2023-06-24T01:56:23;7.72;;;6.40;;
26702;SDS011;14316;51.074;3.704;2023-06-24T01:58:52;7.88;;;6.97;;
26702;SDS011;14316;51.074;3.704;2023-06-24T02:01:20;8.18;;;6.95;;
26702;SDS011;14316;51.074;3.704;2023-06-24T02:03:47;8.70;;;7.38;;
26702;SDS011;14316;51.074;3.704;2023-06-24T02:06:14;7.20;;;6.50;;
26702;SDS011;14316;51.074;3.704;2023-06-24T02:08:42;7.47;;;6.75;;
26702;SDS011;14316;51.074;3.704;2023-06-24T02:11:09;9.70;;;7.20;;
26702;SDS011;14316;51.074;3.704;2023-06-24T02:13:38;7.18;;;6.38;;
26702;SDS011;14316;51.074;3.704;2023-06-24T02:16:06;8.57;;;7.35;;
26702;SDS011;14316;51.074;3.704;2023-06-24T02:18:37;8.35;;;7.20;;
26702;SDS011;14316;51.074;3.704;2023-06-24T02:21:08;8.20;;;7.40;;
26702;SDS011;14316;51.074;3.704;2023-06-24T02:23:35;8.68;;;7.78;;
26702;SDS011;14316;51.074;3.704;2023-06-24T02:26:03;8.40;;;7.60;;
26702;SDS011;14316;51.074;3.704;2023-06-24T02:28:31;9.82;;;7.10;;
26702;SDS011;14316;51.074;3.704;2023-06-24T02:30:58;7.85;;;7.03;;
26702;SDS011;14316;51.074;3.704;2023-06-24T02:33:25;9.77;;;6.95;;
26702;SDS011;14316;51.074;3.704;2023-06-24T02:35:51;10.75;;;8.00;;
26702;SDS011;14316;51.074;3.704;2023-06-24T02:38:18;8.35;;;7.47;;
26702;SDS011;14316;51.074;3.704;2023-06-24T02:40:47;11.07;;;7.65;;
26702;SDS011;14316;51.074;3.704;2023-06-24T02:43:14;11.20;;;8.23;;
26702;SDS011;14316;51.074;3.704;2023-06-24T02:45:40;8.48;;;7.43;;
26702;SDS011;14316;51.074;3.704;2023-06-24T02:48:07;8.88;;;7.90;;
26702;SDS011;14316;51.074;3.704;2023-06-24T02:50:35;10.07;;;8.65;;
26702;SDS011;14316;51.074;3.704;2023-06-24T02:53:05;9.60;;;7.82;;
26702;SDS011;14316;51.074;3.704;2023-06-24T02:55:32;9.73;;;7.43;;
26702;SDS011;14316;51.074;3.704;2023-06-24T02:58:00;8.60;;;7.70;;
26702;SDS011;14316;51.074;3.704;2023-06-24T03:00:27;8.60;;;7.60;;
26702;SDS011;14316;51.074;3.704;2023-06-24T03:02:56;9.40;;;7.35;;
26702;SDS011;14316;51.074;3.704;2023-06-24T03:05:23;10.82;;;7.97;;
26702;SDS011;14316;51.074;3.704;2023-06-24T03:07:53;8.85;;;7.95;;
26702;SDS011;14316;51.074;3.704;2023-06-24T03:10:19;10.07;;;8.50;;
26702;SDS011;14316;51.074;3.704;2023-06-24T03:12:47;9.10;;;8.20;;
26702;SDS011;14316;51.074;3.704;2023-06-24T03:15:14;8.98;;;8.05;;
26702;SDS011;14316;51.074;3.704;2023-06-24T03:17:39;10.10;;;8.60;;
26702;SDS011;14316;51.074;3.704;2023-06-24T03:20:06;9.48;;;8.32;;
26702;SDS011;14316;51.074;3.704;2023-06-24T03:22:33;9.82;;;8.20;;
26702;SDS011;14316;51.074;3.704;2023-06-24T03:24:59;9.25;;;8.35;;
26702;SDS011;14316;51.074;3.704;2023-06-24T03:27:24;9.02;;;8.13;;
26702;SDS011;14316;51.074;3.704;2023-06-24T03:29:50;10.18;;;9.00;;
26702;SDS011;14316;51.074;3.704;2023-06-24T03:32:16;9.88;;;8.70;;
26702;SDS011;14316;51.074;3.704;2023-06-24T03:34:42;13.18;;;8.65;;
26702;SDS011;14316;51.074;3.704;2023-06-24T03:37:08;9.25;;;8.27;;
26702;SDS011;14316;51.074;3.704;2023-06-24T03:39:34;11.55;;;8.48;;
26702;SDS011;14316;51.074;3.704;2023-06-24T03:42:00;9.63;;;8.65;;
26702;SDS011;14316;51.074;3.704;2023-06-24T03:44:26;11.20;;;8.73;;
26702;SDS011;14316;51.074;3.704;2023-06-24T03:46:52;10.77;;;8.77;;
26702;SDS011;14316;51.074;3.704;2023-06-24T03:49:18;11.10;;;8.73;;
26702;SDS011;14316;51.074;3.704;2023-06-24T03:51:44;10.48;;;8.70;;
26702;SDS011;14316;51.074;3.704;2023-06-24T03:54:10;11.15;;;9.07;;
26702;SDS011;14316;51.074;3.704;2023-06-24T03:56:36;12.20;;;9.05;;
26702;SDS011;14316;51.074;3.704;2023-06-24T03:59:02;11.15;;;8.88;;
26702;SDS011;14316;51.074;3.704;2023-06-24T04:01:28;11.63;;;9.00;;
26702;SDS011;14316;51.074;3.704;2023-06-24T04:03:57;11.75;;;9.35;;
26702;SDS011;14316;51.074;3.704;2023-06-24T04:06:23;11.77;;;9.10;;
26702;SDS011;14316;51.074;3.704;2023-06-24T04:08:49;9.77;;;8.65;;
26702;SDS011;14316;51.074;3.704;2023-06-24T04:11:17;11.45;;;9.77;;
26702;SDS011;14316;51.074;3.704;2023-06-24T04:13:44;10.73;;;9.43;;
26702;SDS011;14316;51.074;3.704;2023-06-24T04:16:11;10.98;;;9.32;;
26702;SDS011;14316;51.074;3.704;2023-06-24T04:18:38;10.00;;;8.98;;
26702;SDS011;14316;51.074;3.704;2023-06-24T04:21:05;11.15;;;8.82;;
26702;SDS011;14316;51.074;3.704;2023-06-24T04:23:34;10.30;;;8.80;;
26702;SDS011;14316;51.074;3.704;2023-06-24T04:26:00;10.68;;;9.00;;
26702;SDS011;14316;51.074;3.704;2023-06-24T04:28:26;10.45;;;9.35;;
26702;SDS011;14316;51.074;3.704;2023-06-24T04:30:52;11.15;;;9.13;;
26702;SDS011;14316;51.074;3.704;2023-06-24T04:33:19;13.35;;;10.10;;
26702;SDS011;14316;51.074;3.704;2023-06-24T04:35:46;11.15;;;9.48;;
26702;SDS011;14316;51.074;3.704;2023-06-24T04:38:12;12.75;;;10.77;;
26702;SDS011;14316;51.074;3.704;2023-06-24T04:40:43;11.05;;;9.68;;
26702;SDS011;14316;51.074;3.704;2023-06-24T04:43:10;10.43;;;9.27;;
26702;SDS011;14316;51.074;3.704;2023-06-24T04:45:36;12.23;;;10.63;;
26702;SDS011;14316;51.074;3.704;2023-06-24T04:48:02;11.45;;;10.25;;
26702;SDS011;14316;51.074;3.704;2023-06-24T04:50:28;10.70;;;9.55;;
26702;SDS011;14316;51.074;3.704;2023-06-24T04:52:54;10.23;;;9.10;;
26702;SDS011;14316;51.074;3.704;2023-06-24T04:55:22;12.63;;;10.13;;
26702;SDS011;14316;51.074;3.704;2023-06-24T04:57:48;10.77;;;9.38;;
26702;SDS011;14316;51.074;3.704;2023-06-24T05:00:14;10.65;;;9.43;;
26702;SDS011;14316;51.074;3.704;2023-06-24T05:02:40;11.27;;;9.80;;
26702;SDS011;14316;51.074;3.704;2023-06-24T05:05:06;10.68;;;9.20;;
26702;SDS011;14316;51.074;3.704;2023-06-24T05:07:32;12.63;;;9.85;;
26702;SDS011;14316;51.074;3.704;2023-06-24T05:09:58;11.75;;;10.52;;
26702;SDS011;14316;51.074;3.704;2023-06-24T05:12:24;11.32;;;9.70;;
26702;SDS011;14316;51.074;3.704;2023-06-24T05:14:50;11.32;;;9.90;;
26702;SDS011;14316;51.074;3.704;2023-06-24T05:17:17;11.82;;;10.18;;
26702;SDS011;14316;51.074;3.704;2023-06-24T05:19:46;11.35;;;9.85;;
26702;SDS011;14316;51.074;3.704;2023-06-24T05:22:12;12.32;;;9.98;;
26702;SDS011;14316;51.074;3.704;2023-06-24T05:24:38;11.20;;;10.00;;
26702;SDS011;14316;51.074;3.704;2023-06-24T05:27:06;12.23;;;10.88;;
26702;SDS011;14316;51.074;3.704;2023-06-24T05:29:33;11.68;;;10.48;;
26702;SDS011;14316;51.074;3.704;2023-06-24T05:31:59;13.00;;;9.95;;
26702;SDS011;14316;51.074;3.704;2023-06-24T05:34:27;12.75;;;9.95;;
26702;SDS011;14316;51.074;3.704;2023-06-24T05:36:53;11.40;;;10.18;;
26702;SDS011;14316;51.074;3.704;2023-06-24T05:39:19;12.55;;;10.52;;
26702;SDS011;14316;51.074;3.704;2023-06-24T05:41:46;12.60;;;10.40;;
26702;SDS011;14316;51.074;3.704;2023-06-24T05:44:13;11.90;;;10.45;;
26702;SDS011;14316;51.074;3.704;2023-06-24T05:46:39;13.52;;;10.55;;
26702;SDS011;14316;51.074;3.704;2023-06-24T05:49:05;12.63;;;11.02;;
26702;SDS011;14316;51.074;3.704;2023-06-24T05:51:31;15.75;;;10.95;;
26702;SDS011;14316;51.074;3.704;2023-06-24T05:53:57;11.48;;;10.25;;
26702;SDS011;14316;51.074;3.704;2023-06-24T05:56:23;13.10;;;11.13;;
26702;SDS011;14316;51.074;3.704;2023-06-24T05:58:50;11.68;;;10.48;;
26702;SDS011;14316;51.074;3.704;2023-06-24T06:01:16;12.95;;;11.60;;
26702;SDS011;14316;51.074;3.704;2023-06-24T06:03:41;11.90;;;10.55;;
26702;SDS011;14316;51.074;3.704;2023-06-24T06:06:08;11.80;;;10.60;;
26702;SDS011;14316;51.074;3.704;2023-06-24T06:08:34;13.55;;;11.55;;
26702;SDS011;14316;51.074;3.704;2023-06-24T06:11:00;12.57;;;11.27;;
26702;SDS011;14316;51.074;3.704;2023-06-24T06:13:29;12.98;;;11.05;;
26702;SDS011;14316;51.074;3.704;2023-06-24T06:15:56;12.93;;;11.63;;
26702;SDS011;14316;51.074;3.704;2023-06-24T06:18:22;12.95;;;11.65;;
26702;SDS011;14316;51.074;3.704;2023-06-24T06:20:48;13.35;;;11.32;;
26702;SDS011;14316;51.074;3.704;2023-06-24T06:23:15;14.00;;;12.48;;
26702;SDS011;14316;51.074;3.704;2023-06-24T06:25:41;14.02;;;12.63;;
26702;SDS011;14316;51.074;3.704;2023-06-24T06:28:07;15.85;;;12.35;;
26702;SDS011;14316;51.074;3.704;2023-06-24T06:30:34;14.95;;;13.15;;
26702;SDS011;14316;51.074;3.704;2023-06-24T06:33:00;14.85;;;13.05;;
26702;SDS011;14316;51.074;3.704;2023-06-24T06:35:25;14.65;;;12.82;;
26702;SDS011;14316;51.074;3.704;2023-06-24T06:37:51;15.55;;;13.95;;
26702;SDS011;14316;51.074;3.704;2023-06-24T06:40:21;15.52;;;13.93;;
26702;SDS011;14316;51.074;3.704;2023-06-24T06:42:48;16.80;;;14.77;;
26702;SDS011;14316;51.074;3.704;2023-06-24T06:45:14;15.70;;;13.65;;
26702;SDS011;14316;51.074;3.704;2023-06-24T06:47:40;17.02;;;15.32;;
26702;SDS011;14316;51.074;3.704;2023-06-24T06:50:06;19.15;;;15.55;;
26702;SDS011;14316;51.074;3.704;2023-06-24T06:52:33;20.42;;;14.82;;
26702;SDS011;14316;51.074;3.704;2023-06-24T06:54:59;16.27;;;14.55;;
26702;SDS011;14316;51.074;3.704;2023-06-24T06:57:25;17.70;;;14.82;;
26702;SDS011;14316;51.074;3.704;2023-06-24T06:59:51;17.00;;;15.20;;
26702;SDS011;14316;51.074;3.704;2023-06-24T07:02:18;18.50;;;16.25;;
26702;SDS011;14316;51.074;3.704;2023-06-24T07:04:44;18.35;;;14.77;;
26702;SDS011;14316;51.074;3.704;2023-06-24T07:07:10;16.42;;;14.73;;
26702;SDS011;14316;51.074;3.704;2023-06-24T07:09:37;19.50;;;16.30;;
26702;SDS011;14316;51.074;3.704;2023-06-24T07:12:03;20.40;;;15.48;;
26702;SDS011;14316;51.074;3.704;2023-06-24T07:14:29;19.13;;;17.13;;
26702;SDS011;14316;51.074;3.704;2023-06-24T07:16:55;19.52;;;16.55;;
26702;SDS011;14316;51.074;3.704;2023-06-24T07:19:21;18.73;;;16.65;;
26702;SDS011;14316;51.074;3.704;2023-06-24T07:21:47;18.52;;;15.98;;
26702;SDS011;14316;51.074;3.704;2023-06-24T07:24:13;18.70;;;15.88;;
26702;SDS011;14316;51.074;3.704;2023-06-24T07:26:38;17.02;;;15.23;;
26702;SDS011;14316;51.074;3.704;2023-06-24T07:29:07;19.85;;;16.40;;
26702;SDS011;14316;51.074;3.704;2023-06-24T07:31:34;18.00;;;16.15;;
26702;SDS011;14316;51.074;3.704;2023-06-24T07:34:01;18.23;;;15.32;;
26702;SDS011;14316;51.074;3.704;2023-06-24T07:36:26;18.70;;;15.80;;
26702;SDS011;14316;51.074;3.704;2023-06-24T07:38:52;20.02;;;15.70;;
26702;SDS011;14316;51.074;3.704;2023-06-24T07:41:18;18.60;;;16.60;;
26702;SDS011;14316;51.074;3.704;2023-06-24T07:43:45;17.83;;;15.93;;
26702;SDS011;14316;51.074;3.704;2023-06-24T07:46:10;19.63;;;16.98;;
26702;SDS011;14316;51.074;3.704;2023-06-24T07:48:36;20.83;;;18.30;;
26702;SDS011;14316;51.074;3.704;2023-06-24T07:51:02;19.25;;;17.13;;
26702;SDS011;14316;51.074;3.704;2023-06-24T07:53:28;19.17;;;17.25;;
26702;SDS011;14316;51.074;3.704;2023-06-24T07:55:55;16.30;;;14.20;;
26702;SDS011;14316;51.074;3.704;2023-06-24T07:58:20;19.70;;;17.33;;
26702;SDS011;14316;51.074;3.704;2023-06-24T08:00:46;18.65;;;15.52;;
26702;SDS011;14316;51.074;3.704;2023-06-24T08:03:13;16.85;;;15.13;;
26702;SDS011;14316;51.074;3.704;2023-06-24T08:05:39;19.00;;;16.88;;
26702;SDS011;14316;51.074;3.704;2023-06-24T08:08:06;17.95;;;16.10;;
26702;SDS011;14316;51.074;3.704;2023-06-24T08:10:33;19.42;;;16.70;;
26702;SDS011;14316;51.074;3.704;2023-06-24T08:12:59;19.00;;;16.25;;
26702;SDS011;14316;51.074;3.704;2023-06-24T08:15:25;17.85;;;15.85;;
26702;SDS011;14316;51.074;3.704;2023-06-24T08:17:51;19.23;;;17.20;;
26702;SDS011;14316;51.074;3.704;2023-06-24T08:20:19;19.65;;;15.55;;
26702;SDS011;14316;51.074;3.704;2023-06-24T08:22:48;17.65;;;15.82;;
26702;SDS011;14316;51.074;3.704;2023-06-24T08:25:14;17.50;;;14.88;;
26702;SDS011;14316;51.074;3.704;2023-06-24T08:27:41;18.55;;;16.55;;
26702;SDS011;14316;51.074;3.704;2023-06-24T08:30:08;16.92;;;13.70;;
26702;SDS011;14316;51.074;3.704;2023-06-24T08:32:35;18.50;;;15.25;;
26702;SDS011;14316;51.074;3.704;2023-06-24T08:35:01;16.50;;;14.80;;
26702;SDS011;14316;51.074;3.704;2023-06-24T08:37:26;18.30;;;14.93;;
26702;SDS011;14316;51.074;3.704;2023-06-24T08:39:53;19.38;;;14.68;;
26702;SDS011;14316;51.074;3.704;2023-06-24T08:42:18;16.10;;;14.00;;
26702;SDS011;14316;51.074;3.704;2023-06-24T08:44:45;18.02;;;14.73;;
26702;SDS011;14316;51.074;3.704;2023-06-24T08:47:11;16.67;;;14.02;;
26702;SDS011;14316;51.074;3.704;2023-06-24T08:49:42;17.90;;;13.27;;
26702;SDS011;14316;51.074;3.704;2023-06-24T08:52:17;16.10;;;14.40;;
26702;SDS011;14316;51.074;3.704;2023-06-24T08:54:46;16.05;;;13.15;;
26702;SDS011;14316;51.074;3.704;2023-06-24T08:57:15;12.63;;;11.32;;
26702;SDS011;14316;51.074;3.704;2023-06-24T08:59:43;14.95;;;12.43;;
26702;SDS011;14316;51.074;3.704;2023-06-24T09:02:09;16.35;;;13.32;;
26702;SDS011;14316;51.074;3.704;2023-06-24T09:04:36;15.77;;;14.23;;
26702;SDS011;14316;51.074;3.704;2023-06-24T09:07:02;15.52;;;13.90;;
26702;SDS011;14316;51.074;3.704;2023-06-24T09:09:29;15.90;;;14.30;;
26702;SDS011;14316;51.074;3.704;2023-06-24T09:11:56;16.35;;;13.73;;
26702;SDS011;14316;51.074;3.704;2023-06-24T09:14:24;14.05;;;11.52;;
26702;SDS011;14316;51.074;3.704;2023-06-24T09:17:00;12.13;;;10.88;;
26702;SDS011;14316;51.074;3.704;2023-06-24T09:19:27;15.35;;;10.95;;
26702;SDS011;14316;51.074;3.704;2023-06-24T09:22:04;11.95;;;10.45;;
26702;SDS011;14316;51.074;3.704;2023-06-24T09:24:32;11.40;;;9.98;;
26702;SDS011;14316;51.074;3.704;2023-06-24T09:26:58;12.18;;;11.07;;
26702;SDS011;14316;51.074;3.704;2023-06-24T09:29:29;11.55;;;10.35;;
26702;SDS011;14316;51.074;3.704;2023-06-24T09:31:57;12.48;;;9.52;;
26702;SDS011;14316;51.074;3.704;2023-06-24T09:34:28;9.35;;;8.30;;
26702;SDS011;14316;51.074;3.704;2023-06-24T09:36:54;15.63;;;10.30;;
26702;SDS011;14316;51.074;3.704;2023-06-24T09:39:24;12.55;;;9.80;;
26702;SDS011;14316;51.074;3.704;2023-06-24T09:41:55;10.40;;;8.85;;
26702;SDS011;14316;51.074;3.704;2023-06-24T09:44:21;15.00;;;8.20;;
26702;SDS011;14316;51.074;3.704;2023-06-24T09:46:48;8.77;;;7.90;;
26702;SDS011;14316;51.074;3.704;2023-06-24T09:49:14;9.30;;;8.40;;
26702;SDS011;14316;51.074;3.704;2023-06-24T09:51:47;9.80;;;8.38;;
26702;SDS011;14316;51.074;3.704;2023-06-24T09:54:15;9.60;;;8.70;;
26702;SDS011;14316;51.074;3.704;2023-06-24T09:56:48;11.93;;;9.13;;
26702;SDS011;14316;51.074;3.704;2023-06-24T09:59:17;10.43;;;9.10;;
26702;SDS011;14316;51.074;3.704;2023-06-24T10:01:51;10.07;;;8.02;;
26702;SDS011;14316;51.074;3.704;2023-06-24T10:04:18;8.35;;;7.10;;
26702;SDS011;14316;51.074;3.704;2023-06-24T10:06:47;10.32;;;8.10;;
26702;SDS011;14316;51.074;3.704;2023-06-24T10:09:13;7.85;;;7.15;;
26702;SDS011;14316;51.074;3.704;2023-06-24T10:11:42;6.38;;;5.63;;
26702;SDS011;14316;51.074;3.704;2023-06-24T10:14:11;6.05;;;4.70;;
26702;SDS011;14316;51.074;3.704;2023-06-24T10:16:40;5.88;;;5.28;;
26702;SDS011;14316;51.074;3.704;2023-06-24T10:19:06;7.05;;;6.35;;
26702;SDS011;14316;51.074;3.704;2023-06-24T10:21:45;4.95;;;4.45;;
26702;SDS011;14316;51.074;3.704;2023-06-24T10:24:28;5.72;;;5.22;;
26702;SDS011;14316;51.074;3.704;2023-06-24T10:26:55;7.40;;;6.35;;
26702;SDS011;14316;51.074;3.704;2023-06-24T10:29:30;7.53;;;6.72;;
26702;SDS011;14316;51.074;3.704;2023-06-24T10:31:56;6.78;;;6.18;;
26702;SDS011;14316;51.074;3.704;2023-06-24T10:34:31;5.93;;;5.32;;
26702;SDS011;14316;51.074;3.704;2023-06-24T10:39:57;8.30;;;7.30;;
26702;SDS011;14316;51.074;3.704;2023-06-24T10:47:38;6.28;;;5.68;;
26702;SDS011;14316;51.074;3.704;2023-06-24T10:50:09;8.65;;;6.65;;
26702;SDS011;14316;51.074;3.704;2023-06-24T10:52:37;7.18;;;6.47;;
26702;SDS011;14316;51.074;3.704;2023-06-24T10:55:04;5.55;;;5.05;;
26702;SDS011;14316;51.074;3.704;2023-06-24T10:57:32;6.13;;;5.53;;
26702;SDS011;14316;51.074;3.704;2023-06-24T10:59:58;5.95;;;5.30;;
26702;SDS011;14316;51.074;3.704;2023-06-24T11:02:24;7.65;;;5.93;;
26702;SDS011;14316;51.074;3.704;2023-06-24T11:04:53;8.52;;;7.70;;
26702;SDS011;14316;51.074;3.704;2023-06-24T11:07:20;8.02;;;7.32;;
26702;SDS011;14316;51.074;3.704;2023-06-24T11:09:51;7.38;;;6.28;;
26702;SDS011;14316;51.074;3.704;2023-06-24T11:12:27;6.75;;;6.07;;
26702;SDS011;14316;51.074;3.704;2023-06-24T11:14:56;8.85;;;7.95;;
26702;SDS011;14316;51.074;3.704;2023-06-24T11:17:23;7.70;;;6.93;;
26702;SDS011;14316;51.074;3.704;2023-06-24T11:19:52;10.13;;;6.05;;
26702;SDS011;14316;51.074;3.704;2023-06-24T11:22:18;6.55;;;5.88;;
26702;SDS011;14316;51.074;3.704;2023-06-24T11:24:44;7.15;;;6.40;;
26702;SDS011;14316;51.074;3.704;2023-06-24T11:27:10;6.97;;;6.28;;
26702;SDS011;14316;51.074;3.704;2023-06-24T11:29:36;6.07;;;5.05;;
26702;SDS011;14316;51.074;3.704;2023-06-24T11:32:07;5.93;;;5.22;;
26702;SDS011;14316;51.074;3.704;2023-06-24T11:34:34;5.35;;;4.40;;
26702;SDS011;14316;51.074;3.704;2023-06-24T11:37:14;4.28;;;3.97;;
26702;SDS011;14316;51.074;3.704;2023-06-24T11:39:40;4.10;;;3.70;;
26702;SDS011;14316;51.074;3.704;2023-06-24T11:42:07;8.43;;;7.60;;
26702;SDS011;14316;51.074;3.704;2023-06-24T11:44:34;9.05;;;8.15;;
26702;SDS011;14316;51.074;3.704;2023-06-24T11:47:07;7.30;;;6.60;;
26702;SDS011;14316;51.074;3.704;2023-06-24T11:49:52;6.72;;;6.07;;
26702;SDS011;14316;51.074;3.704;2023-06-24T11:52:31;9.77;;;6.90;;
26702;SDS011;14316;51.074;3.704;2023-06-24T11:55:00;8.27;;;5.38;;
26702;SDS011;14316;51.074;3.704;2023-06-24T12:00:25;15.82;;;6.28;;
26702;SDS011;14316;51.074;3.704;2023-06-24T12:02:53;6.55;;;5.97;;
26702;SDS011;14316;51.074;3.704;2023-06-24T12:05:24;7.43;;;5.78;;
26702;SDS011;14316;51.074;3.704;2023-06-24T12:08:03;15.90;;;7.05;;
26702;SDS011;14316;51.074;3.704;2023-06-24T12:10:31;7.05;;;6.15;;
26702;SDS011;14316;51.074;3.704;2023-06-24T12:12:59;9.43;;;6.70;;
26702;SDS011;14316;51.074;3.704;2023-06-24T12:15:26;5.60;;;5.10;;
26702;SDS011;14316;51.074;3.704;2023-06-24T12:17:52;7.53;;;6.90;;
26702;SDS011;14316;51.074;3.704;2023-06-24T12:20:18;7.40;;;4.70;;
26702;SDS011;14316;51.074;3.704;2023-06-24T12:22:44;5.80;;;5.30;;
26702;SDS011;14316;51.074;3.704;2023-06-24T12:25:11;5.55;;;5.05;;
26702;SDS011;14316;51.074;3.704;2023-06-24T12:27:37;6.05;;;5.10;;
26702;SDS011;14316;51.074;3.704;2023-06-24T12:30:05;5.90;;;5.32;;
26702;SDS011;14316;51.074;3.704;2023-06-24T12:32:31;6.22;;;5.57;;
26702;SDS011;14316;51.074;3.704;2023-06-24T12:34:57;6.05;;;5.43;;
26702;SDS011;14316;51.074;3.704;2023-06-24T12:37:23;5.57;;;5.07;;
26702;SDS011;14316;51.074;3.704;2023-06-24T12:39:49;7.53;;;6.20;;
26702;SDS011;14316;51.074;3.704;2023-06-24T12:42:18;6.30;;;4.78;;
26702;SDS011;14316;51.074;3.704;2023-06-24T12:44:43;4.85;;;4.00;;
26702;SDS011;14316;51.074;3.704;2023-06-24T12:47:09;4.70;;;4.20;;
26702;SDS011;14316;51.074;3.704;2023-06-24T12:49:35;5.75;;;4.55;;
26702;SDS011;14316;51.074;3.704;2023-06-24T12:52:01;4.60;;;4.20;;
26702;SDS011;14316;51.074;3.704;2023-06-24T12:54:27;6.70;;;6.10;;
26702;SDS011;14316;51.074;3.704;2023-06-24T12:56:53;5.38;;;4.97;;
26702;SDS011;14316;51.074;3.704;2023-06-24T12:59:19;7.88;;;6.80;;
26702;SDS011;14316;51.074;3.704;2023-06-24T13:01:45;7.38;;;6.78;;
26702;SDS011;14316;51.074;3.704;2023-06-24T13:04:11;7.63;;;5.70;;
26702;SDS011;14316;51.074;3.704;2023-06-24T13:06:37;8.10;;;6.38;;
26702;SDS011;14316;51.074;3.704;2023-06-24T13:09:03;4.68;;;4.28;;
26702;SDS011;14316;51.074;3.704;2023-06-24T13:11:28;5.53;;;5.00;;
26702;SDS011;14316;51.074;3.704;2023-06-24T13:13:54;6.32;;;5.00;;
26702;SDS011;14316;51.074;3.704;2023-06-24T13:16:23;5.03;;;4.63;;
26702;SDS011;14316;51.074;3.704;2023-06-24T13:18:49;4.80;;;4.40;;
26702;SDS011;14316;51.074;3.704;2023-06-24T13:21:15;5.55;;;4.75;;
26702;SDS011;14316;51.074;3.704;2023-06-24T13:23:40;5.57;;;4.20;;
26702;SDS011;14316;51.074;3.704;2023-06-24T13:26:06;4.43;;;4.00;;
26702;SDS011;14316;51.074;3.704;2023-06-24T13:28:32;4.28;;;3.88;;
26702;SDS011;14316;51.074;3.704;2023-06-24T13:30:58;4.00;;;3.53;;
26702;SDS011;14316;51.074;3.704;2023-06-24T13:33:24;4.82;;;4.43;;
26702;SDS011;14316;51.074;3.704;2023-06-24T13:35:50;4.95;;;3.80;;
26702;SDS011;14316;51.074;3.704;2023-06-24T13:38:16;3.58;;;3.28;;
26702;SDS011;14316;51.074;3.704;2023-06-24T13:40:42;4.32;;;3.10;;
26702;SDS011;14316;51.074;3.704;2023-06-24T13:43:11;3.50;;;3.20;;
26702;SDS011;14316;51.074;3.704;2023-06-24T13:45:37;3.70;;;3.40;;
26702;SDS011;14316;51.074;3.704;2023-06-24T13:48:02;3.58;;;3.28;;
26702;SDS011;14316;51.074;3.704;2023-06-24T13:50:28;4.07;;;3.50;;
26702;SDS011;14316;51.074;3.704;2023-06-24T13:52:57;4.70;;;3.75;;
26702;SDS011;14316;51.074;3.704;2023-06-24T13:55:23;3.85;;;3.05;;
26702;SDS011;14316;51.074;3.704;2023-06-24T13:57:49;4.05;;;3.03;;
26702;SDS011;14316;51.074;3.704;2023-06-24T14:00:15;3.20;;;3.00;;
26702;SDS011;14316;51.074;3.704;2023-06-24T14:02:41;3.40;;;2.90;;
26702;SDS011;14316;51.074;3.704;2023-06-24T14:05:07;4.15;;;3.85;;
26702;SDS011;14316;51.074;3.704;2023-06-24T14:07:33;3.97;;;3.55;;
26702;SDS011;14316;51.074;3.704;2023-06-24T14:09:59;4.03;;;3.72;;
26702;SDS011;14316;51.074;3.704;2023-06-24T14:12:25;3.75;;;3.45;;
26702;SDS011;14316;51.074;3.704;2023-06-24T14:14:51;3.97;;;3.67;;
26702;SDS011;14316;51.074;3.704;2023-06-24T14:17:17;2.85;;;2.50;;
26702;SDS011;14316;51.074;3.704;2023-06-24T14:19:43;3.22;;;2.85;;
26702;SDS011;14316;51.074;3.704;2023-06-24T14:22:09;3.70;;;2.58;;
26702;SDS011;14316;51.074;3.704;2023-06-24T14:24:37;4.35;;;2.60;;
26702;SDS011;14316;51.074;3.704;2023-06-24T14:27:06;2.70;;;2.50;;
26702;SDS011;14316;51.074;3.704;2023-06-24T14:29:32;3.28;;;2.50;;
26702;SDS011;14316;51.074;3.704;2023-06-24T14:31:58;3.03;;;2.42;;
26702;SDS011;14316;51.074;3.704;2023-06-24T14:34:24;3.33;;;2.88;;
26702;SDS011;14316;51.074;3.704;2023-06-24T14:36:52;3.38;;;2.53;;
26702;SDS011;14316;51.074;3.704;2023-06-24T14:39:18;3.00;;;2.70;;
26702;SDS011;14316;51.074;3.704;2023-06-24T14:41:44;3.97;;;3.67;;
26702;SDS011;14316;51.074;3.704;2023-06-24T14:44:10;4.38;;;3.78;;
26702;SDS011;14316;51.074;3.704;2023-06-24T14:46:36;18.13;;;4.20;;
26702;SDS011;14316;51.074;3.704;2023-06-24T14:49:02;3.83;;;3.00;;
26702;SDS011;14316;51.074;3.704;2023-06-24T14:51:28;3.95;;;3.10;;
26702;SDS011;14316;51.074;3.704;2023-06-24T14:53:54;3.55;;;3.20;;
26702;SDS011;14316;51.074;3.704;2023-06-24T14:56:20;5.82;;;2.70;;
26702;SDS011;14316;51.074;3.704;2023-06-24T14:58:46;6.47;;;2.95;;
26702;SDS011;14316;51.074;3.704;2023-06-24T15:01:12;3.22;;;2.00;;